createdAt,value
2022-11-07T00:02:05.047Z,99109.94
2022-11-07T00:04:32.767Z,99108.84
2022-11-07T00:06:59.930Z,99109.69
2022-11-07T00:09:26.552Z,99107.84
2022-11-07T00:11:55.841Z,99107.44
2022-11-07T00:14:23.659Z,99126.78
2022-11-07T00:16:50.683Z,99116.66
2022-11-07T00:19:20.475Z,99117.00
2022-11-07T00:21:48.674Z,99139.56
2022-11-07T00:24:16.509Z,99131.75
2022-11-07T00:26:44.543Z,99143.94
2022-11-07T00:29:14.597Z,99144.53
2022-11-07T00:31:41.459Z,99141.69
2022-11-07T00:34:08.018Z,99145.78
2022-11-07T00:36:34.751Z,99145.59
2022-11-07T00:39:01.623Z,99146.38
2022-11-07T00:41:28.658Z,99164.28
2022-11-07T00:43:55.518Z,99163.66
2022-11-07T00:46:23.992Z,99159.06
2022-11-07T00:48:51.389Z,99151.63
2022-11-07T00:51:20.340Z,99143.44
2022-11-07T00:53:47.590Z,99147.56
2022-11-07T00:56:17.696Z,99159.25
2022-11-07T00:58:44.530Z,99154.13
2022-11-07T01:01:14.838Z,99155.66
2022-11-07T01:03:43.397Z,99149.94
2022-11-07T01:06:12.472Z,99152.91
2022-11-07T01:08:38.984Z,99150.16
2022-11-07T01:11:06.607Z,99155.13
2022-11-07T01:13:34.201Z,99166.56
2022-11-07T01:16:02.135Z,99155.75
2022-11-07T01:18:29.113Z,99154.16
2022-11-07T01:20:57.198Z,99152.97
2022-11-07T01:23:23.926Z,99161.53
2022-11-07T01:25:50.619Z,99153.69
2022-11-07T01:28:17.314Z,99155.84
2022-11-07T01:30:44.473Z,99148.97
2022-11-07T01:33:12.113Z,99157.13
2022-11-07T01:35:39.410Z,99158.69
2022-11-07T01:38:07.440Z,99161.94
2022-11-07T01:40:34.068Z,99151.91
2022-11-07T01:43:00.709Z,99155.63
2022-11-07T01:45:29.713Z,99155.78
2022-11-07T01:47:59.640Z,99158.97
2022-11-07T01:50:27.050Z,99160.28
2022-11-07T01:52:55.810Z,99159.31
2022-11-07T01:55:29.632Z,99158.66
2022-11-07T01:57:59.988Z,99153.63
2022-11-07T02:00:27.787Z,99151.47
2022-11-07T02:02:59.401Z,99147.94
2022-11-07T02:05:31.331Z,99142.22
2022-11-07T02:07:59.143Z,99150.25
2022-11-07T02:10:27.315Z,99147.09
2022-11-07T02:12:55.935Z,99145.75
2022-11-07T02:15:25.018Z,99149.69
2022-11-07T02:17:51.924Z,99143.44
2022-11-07T02:20:18.988Z,99151.88
2022-11-07T02:22:51.295Z,99146.47
2022-11-07T02:25:20.659Z,99151.19
2022-11-07T02:27:50.865Z,99150.63
2022-11-07T02:30:20.228Z,99149.16
2022-11-07T02:32:47.071Z,99151.97
2022-11-07T02:35:36.557Z,99146.63
2022-11-07T02:38:06.961Z,99143.88
2022-11-07T02:40:35.620Z,99144.28
2022-11-07T02:43:03.634Z,99149.28
2022-11-07T02:45:34.575Z,99149.81
2022-11-07T02:48:01.919Z,99151.03
2022-11-07T02:50:28.467Z,99145.69
2022-11-07T02:52:55.171Z,99150.19
2022-11-07T02:55:21.854Z,99153.34
2022-11-07T02:57:49.915Z,99155.03
2022-11-07T03:00:16.725Z,99159.03
2022-11-07T03:02:44.153Z,99152.75
2022-11-07T03:05:10.931Z,99158.97
2022-11-07T03:07:37.457Z,99156.88
2022-11-07T03:10:04.976Z,99161.50
2022-11-07T03:12:31.619Z,99169.50
2022-11-07T03:14:59.609Z,99174.06
2022-11-07T03:17:26.218Z,99169.97
2022-11-07T03:19:52.772Z,99166.53
2022-11-07T03:22:19.349Z,99171.06
2022-11-07T03:24:45.914Z,99168.75
2022-11-07T03:27:12.415Z,99170.69
2022-11-07T03:29:38.942Z,99174.47
2022-11-07T03:32:07.153Z,99180.38
2022-11-07T03:34:33.843Z,99178.66
2022-11-07T03:37:00.406Z,99171.19
2022-11-07T03:39:27.069Z,99172.63
2022-11-07T03:41:53.589Z,99173.84
2022-11-07T03:44:20.311Z,99174.78
2022-11-07T03:46:47.107Z,99176.09
2022-11-07T03:49:15.170Z,99180.66
2022-11-07T03:51:41.915Z,99186.19
2022-11-07T03:54:10.085Z,99186.88
2022-11-07T03:56:36.615Z,99181.31
2022-11-07T03:59:03.460Z,99183.00
2022-11-07T04:01:30.213Z,99189.06
2022-11-07T04:03:56.858Z,99185.81
2022-11-07T04:06:24.964Z,99192.03
2022-11-07T04:08:51.500Z,99187.81
2022-11-07T04:11:18.070Z,99186.19
2022-11-07T04:13:44.677Z,99193.75
2022-11-07T04:16:17.241Z,99190.59
2022-11-07T04:18:44.342Z,99186.56
2022-11-07T04:21:10.937Z,99180.97
2022-11-07T04:23:38.999Z,99193.25
2022-11-07T04:26:05.824Z,99198.69
2022-11-07T04:28:32.450Z,99195.53
2022-11-07T04:30:58.953Z,99205.03
2022-11-07T04:33:25.786Z,99200.75
2022-11-07T04:35:52.409Z,99203.78
2022-11-07T04:38:19.258Z,99193.88
2022-11-07T04:40:53.208Z,99200.50
2022-11-07T04:43:19.911Z,99198.94
2022-11-07T04:45:46.560Z,99193.97
2022-11-07T04:48:13.083Z,99190.28
2022-11-07T04:50:41.906Z,99186.50
2022-11-07T04:53:11.765Z,99189.09
2022-11-07T04:55:38.526Z,99198.78
2022-11-07T04:58:06.569Z,99185.13
2022-11-07T05:00:33.474Z,99189.47
2022-11-07T05:03:00.620Z,99198.72
2022-11-07T05:05:27.713Z,99186.97
2022-11-07T05:07:54.633Z,99192.22
2022-11-07T05:10:24.137Z,99185.56
2022-11-07T05:12:51.264Z,99184.88
2022-11-07T05:15:19.353Z,99175.56
2022-11-07T05:17:46.222Z,99178.06
2022-11-07T05:20:26.434Z,99173.50
2022-11-07T05:22:56.295Z,99174.00
2022-11-07T05:25:23.395Z,99175.63
2022-11-07T05:27:55.200Z,99181.22
2022-11-07T05:30:23.463Z,99182.84
2022-11-07T05:32:50.216Z,99183.72
2022-11-07T05:35:18.866Z,99186.97
2022-11-07T05:37:45.891Z,99184.44
2022-11-07T05:40:12.883Z,99188.78
2022-11-07T05:42:39.755Z,99185.59
2022-11-07T05:45:08.763Z,99192.50
2022-11-07T05:47:36.769Z,99193.25
2022-11-07T05:50:04.114Z,99198.72
2022-11-07T05:52:31.736Z,99194.19
2022-11-07T05:54:58.342Z,99195.44
2022-11-07T05:57:24.939Z,99201.63
2022-11-07T05:59:51.895Z,99199.19
2022-11-07T06:02:18.616Z,99208.38
2022-11-07T06:04:46.570Z,99214.97
2022-11-07T06:07:13.285Z,99208.56
2022-11-07T06:09:39.871Z,99196.44
2022-11-07T06:12:06.801Z,99208.53
2022-11-07T06:14:34.293Z,99208.63
2022-11-07T06:17:04.309Z,99207.91
2022-11-07T06:19:30.987Z,99200.63
2022-11-07T06:22:00.101Z,99196.53
2022-11-07T06:24:26.846Z,99202.13
2022-11-07T06:26:53.677Z,99209.69
2022-11-07T06:29:20.548Z,99210.78
2022-11-07T06:31:47.524Z,99216.50
2022-11-07T06:34:14.346Z,99210.44
2022-11-07T06:36:41.132Z,99215.16
2022-11-07T06:39:09.559Z,99223.47
2022-11-07T06:41:36.139Z,99217.25
2022-11-07T06:44:05.065Z,99222.22
2022-11-07T06:46:32.206Z,99218.63
2022-11-07T06:48:58.991Z,99224.44
2022-11-07T06:51:26.297Z,99219.63
2022-11-07T06:53:53.035Z,99230.31
2022-11-07T06:56:21.019Z,99233.13
2022-11-07T06:58:47.534Z,99231.78
2022-11-07T07:01:14.469Z,99220.00
2022-11-07T07:03:42.453Z,99219.97
2022-11-07T07:06:12.867Z,99223.34
2022-11-07T07:08:40.249Z,99232.88
2022-11-07T07:11:09.829Z,99224.44
2022-11-07T07:13:38.306Z,99231.03
2022-11-07T07:16:06.289Z,99241.66
2022-11-07T07:18:35.591Z,99241.75
2022-11-07T07:21:05.721Z,99247.13
2022-11-07T07:23:33.228Z,99253.31
2022-11-07T07:25:59.856Z,99249.19
2022-11-07T07:28:26.448Z,99243.06
2022-11-07T07:31:08.271Z,99243.63
2022-11-07T07:33:38.774Z,99248.31
2022-11-07T07:36:06.411Z,99252.66
2022-11-07T07:38:32.965Z,99253.94
2022-11-07T07:41:00.192Z,99254.34
2022-11-07T07:43:28.502Z,99258.34
2022-11-07T07:46:00.544Z,99250.78
2022-11-07T07:48:27.749Z,99259.19
2022-11-07T07:50:54.974Z,99263.59
2022-11-07T07:53:21.759Z,99261.72
2022-11-07T07:55:48.985Z,99263.50
2022-11-07T07:58:16.211Z,99257.75
2022-11-07T08:00:43.487Z,99268.47
2022-11-07T08:03:12.675Z,99264.41
2022-11-07T08:05:42.624Z,99262.41
2022-11-07T08:08:09.439Z,99272.78
2022-11-07T08:10:42.024Z,99281.63
2022-11-07T08:13:09.896Z,99277.53
2022-11-07T08:15:38.612Z,99274.41
2022-11-07T08:18:05.450Z,99277.34
2022-11-07T08:20:33.415Z,99282.31
2022-11-07T08:23:02.590Z,99281.88
2022-11-07T08:25:29.182Z,99291.84
2022-11-07T08:27:55.803Z,99303.34
2022-11-07T08:30:22.819Z,99299.38
2022-11-07T08:32:49.934Z,99298.03
2022-11-07T08:35:17.031Z,99300.03
2022-11-07T08:37:45.374Z,99299.09
2022-11-07T08:40:12.793Z,99300.53
2022-11-07T08:42:40.298Z,99302.84
2022-11-07T08:45:08.106Z,99299.25
2022-11-07T08:47:34.979Z,99294.25
2022-11-07T08:50:01.556Z,99304.19
2022-11-07T08:52:28.369Z,99301.31
2022-11-07T08:55:00.161Z,99301.91
2022-11-07T08:57:26.874Z,99308.47
2022-11-07T08:59:53.489Z,99306.78
2022-11-07T09:05:07.784Z,99312.84
2022-11-07T09:07:39.386Z,99296.06
2022-11-07T09:10:09.653Z,99290.88
2022-11-07T09:12:36.551Z,99298.03
2022-11-07T09:15:03.785Z,99300.50
2022-11-07T09:17:30.597Z,99304.41
2022-11-07T09:19:57.377Z,99297.91
2022-11-07T09:22:23.923Z,99310.44
2022-11-07T09:24:50.754Z,99302.84
2022-11-07T09:27:19.490Z,99305.56
2022-11-07T09:29:46.172Z,99305.69
2022-11-07T09:32:38.677Z,99307.59
2022-11-07T09:35:04.666Z,99310.53
2022-11-07T09:37:31.847Z,99307.50
2022-11-07T09:39:58.373Z,99312.59
2022-11-07T09:42:37.148Z,99317.81
2022-11-07T09:45:04.398Z,99321.66
2022-11-07T09:47:37.505Z,99323.28
2022-11-07T09:50:11.867Z,99332.25
2022-11-07T09:52:43.480Z,99343.16
2022-11-07T09:55:17.433Z,99350.56
2022-11-07T09:57:46.282Z,99346.88
2022-11-07T10:00:17.241Z,99365.63
2022-11-07T10:02:47.179Z,99357.56
2022-11-07T10:05:16.894Z,99360.69
2022-11-07T10:07:56.988Z,99356.06
2022-11-07T10:10:35.630Z,99365.94
2022-11-07T10:13:18.303Z,99352.50
2022-11-07T10:15:58.402Z,99359.09
2022-11-07T10:18:37.952Z,99366.81
2022-11-07T10:21:36.530Z,99363.63
2022-11-07T10:24:16.411Z,99373.28
2022-11-07T10:26:45.005Z,99373.22
2022-11-07T10:29:16.553Z,99369.06
2022-11-07T10:31:48.589Z,99369.53
2022-11-07T10:34:21.389Z,99371.56
2022-11-07T10:36:48.210Z,99371.41
2022-11-07T10:39:17.511Z,99366.31
2022-11-07T10:41:47.730Z,99364.75
2022-11-07T10:44:22.514Z,99358.41
2022-11-07T10:46:51.637Z,99356.41
2022-11-07T10:49:23.253Z,99355.09
2022-11-07T10:51:51.198Z,99357.53
2022-11-07T10:54:26.672Z,99361.44
2022-11-07T10:57:02.648Z,99356.69
2022-11-07T10:59:36.520Z,99347.56
2022-11-07T11:02:17.572Z,99350.31
2022-11-07T11:04:50.941Z,99357.69
2022-11-07T11:07:18.022Z,99354.09
2022-11-07T11:09:52.073Z,99358.41
2022-11-07T11:12:25.538Z,99360.81
2022-11-07T11:15:11.275Z,99346.38
2022-11-07T11:17:38.325Z,99350.22
2022-11-07T11:20:06.877Z,99353.44
2022-11-07T11:22:41.297Z,99352.19
2022-11-07T11:25:17.403Z,99348.72
2022-11-07T11:27:46.843Z,99350.34
2022-11-07T11:30:17.459Z,99348.34
2022-11-07T11:32:50.156Z,99344.97
2022-11-07T11:35:30.007Z,99352.34
2022-11-07T11:38:03.086Z,99349.78
2022-11-07T11:40:35.816Z,99341.69
2022-11-07T11:43:15.286Z,99346.09
2022-11-07T11:46:04.296Z,99342.81
2022-11-07T11:48:38.590Z,99343.97
2022-11-07T11:51:10.514Z,99340.38
2022-11-07T11:53:37.092Z,99341.72
2022-11-07T11:56:22.674Z,99335.06
2022-11-07T11:59:02.252Z,99341.66
2022-11-07T12:01:39.772Z,99349.44
2022-11-07T12:04:35.780Z,99340.09
2022-11-07T12:07:14.511Z,99344.81
2022-11-07T12:09:51.042Z,99343.94
2022-11-07T12:12:34.974Z,99344.00
2022-11-07T12:15:24.093Z,99349.00
2022-11-07T12:18:12.050Z,99335.50
2022-11-07T12:20:50.603Z,99340.94
2022-11-07T12:23:31.397Z,99337.16
2022-11-07T12:26:03.679Z,99330.28
2022-11-07T12:28:39.360Z,99322.69
2022-11-07T12:31:20.577Z,99323.06
2022-11-07T12:33:53.427Z,99327.63
2022-11-07T12:36:36.872Z,99324.19
2022-11-07T12:39:28.979Z,99324.88
2022-11-07T12:41:59.252Z,99323.31
2022-11-07T12:44:57.974Z,99313.88
2022-11-07T12:47:43.351Z,99317.63
2022-11-07T12:50:26.525Z,99324.41
2022-11-07T12:53:05.760Z,99328.44
2022-11-07T12:55:40.081Z,99322.69
2022-11-07T12:58:14.952Z,99326.91
2022-11-07T13:00:42.896Z,99325.75
2022-11-07T13:03:25.522Z,99326.16
2022-11-07T13:06:06.536Z,99330.59
2022-11-07T13:08:38.722Z,99328.72
2022-11-07T13:11:16.894Z,99326.38
2022-11-07T13:13:54.824Z,99335.41
2022-11-07T13:16:24.758Z,99339.91
2022-11-07T13:18:51.479Z,99327.31
2022-11-07T13:21:19.592Z,99336.59
2022-11-07T13:23:46.998Z,99325.03
2022-11-07T13:26:44.986Z,99330.41
2022-11-07T13:29:02.314Z,99323.44
2022-11-07T13:31:32.778Z,99326.03
2022-11-07T13:34:10.336Z,99328.53
2022-11-07T13:36:39.180Z,99324.84
2022-11-07T13:39:07.418Z,99327.31
2022-11-07T13:41:34.835Z,99333.28
2022-11-07T13:44:05.524Z,99325.88
2022-11-07T13:46:36.159Z,99322.69
2022-11-07T13:49:09.174Z,99333.09
2022-11-07T13:51:41.283Z,99333.19
2022-11-07T13:54:17.219Z,99333.13
2022-11-07T13:56:54.015Z,99322.25
2022-11-07T13:59:38.312Z,99323.41
2022-11-07T14:02:05.994Z,99330.50
2022-11-07T14:04:44.452Z,99330.88
2022-11-07T14:07:26.498Z,99326.75
2022-11-07T14:09:57.733Z,99321.38
2022-11-07T14:12:25.415Z,99333.50
2022-11-07T14:14:55.289Z,99326.44
2022-11-07T14:17:28.546Z,99327.78
2022-11-07T14:20:05.760Z,99325.81
2022-11-07T14:22:36.037Z,99332.44
2022-11-07T14:25:03.164Z,99319.72
2022-11-07T14:27:30.106Z,99322.38
2022-11-07T14:29:58.735Z,99326.25
2022-11-07T14:32:32.027Z,99321.03
2022-11-07T14:35:00.238Z,99319.56
2022-11-07T14:37:27.099Z,99317.97
2022-11-07T14:39:55.301Z,99320.53
2022-11-07T14:42:23.802Z,99326.78
2022-11-07T14:44:55.143Z,99322.13
2022-11-07T14:47:25.427Z,99314.91
2022-11-07T14:49:53.317Z,99323.78
2022-11-07T14:52:23.807Z,99326.84
2022-11-07T14:54:57.127Z,99319.75
2022-11-07T14:57:25.666Z,99325.97
2022-11-07T14:59:52.390Z,99333.09
2022-11-07T15:02:27.522Z,99328.47
2022-11-07T15:04:58.905Z,99332.53
2022-11-07T15:07:45.630Z,99322.50
2022-11-07T15:10:14.228Z,99324.47
2022-11-07T15:12:51.527Z,99320.41
2022-11-07T15:15:20.598Z,99305.75
2022-11-07T15:17:49.585Z,99308.78
2022-11-07T15:20:22.139Z,99317.59
2022-11-07T15:22:48.997Z,99314.00
2022-11-07T15:25:27.402Z,99312.72
2022-11-07T15:27:55.975Z,99315.88
2022-11-07T15:30:29.411Z,99317.34
2022-11-07T15:32:59.012Z,99316.06
2022-11-07T15:38:18.127Z,99320.28
2022-11-07T15:40:45.503Z,99324.78
2022-11-07T15:43:13.774Z,99322.13
2022-11-07T15:45:41.472Z,99327.63
2022-11-07T15:48:12.000Z,99335.47
2022-11-07T15:50:42.423Z,99333.84
2022-11-07T15:53:15.533Z,99335.56
2022-11-07T15:55:42.412Z,99345.69
2022-11-07T15:58:12.778Z,99346.53
2022-11-07T16:00:41.682Z,99340.34
2022-11-07T16:03:14.267Z,99348.00
2022-11-07T16:05:57.852Z,99334.16
2022-11-07T16:08:25.360Z,99347.44
2022-11-07T16:10:55.434Z,99352.63
2022-11-07T16:13:22.252Z,99350.63
2022-11-07T16:15:54.174Z,99352.50
2022-11-07T16:18:22.072Z,99353.63
2022-11-07T16:20:51.686Z,99347.72
2022-11-07T16:23:18.770Z,99356.53
2022-11-07T16:26:11.231Z,99356.97
2022-11-07T16:28:41.225Z,99362.03
2022-11-07T16:31:09.379Z,99358.25
2022-11-07T16:33:35.946Z,99366.06
2022-11-07T16:36:20.241Z,99361.00
2022-11-07T16:38:46.789Z,99353.06
2022-11-07T16:41:14.062Z,99363.31
2022-11-07T16:43:40.794Z,99362.47
2022-11-07T16:46:15.296Z,99362.63
2022-11-07T16:48:42.921Z,99367.06
2022-11-07T16:51:13.526Z,99362.19
2022-11-07T16:53:40.168Z,99363.75
2022-11-07T16:56:14.723Z,99365.06
2022-11-07T16:58:42.314Z,99357.97
2022-11-07T17:01:11.806Z,99366.97
2022-11-07T17:03:39.969Z,99365.94
2022-11-07T17:06:20.119Z,99374.91
2022-11-07T17:08:47.292Z,99370.13
2022-11-07T17:11:15.519Z,99363.34
2022-11-07T17:13:43.932Z,99368.09
2022-11-07T17:16:16.337Z,99365.38
2022-11-07T17:18:44.755Z,99370.97
2022-11-07T17:21:22.173Z,99369.38
2022-11-07T17:23:49.623Z,99367.09
2022-11-07T17:26:19.083Z,99366.66
2022-11-07T17:28:46.960Z,99363.91
2022-11-07T17:31:14.046Z,99373.88
2022-11-07T17:33:40.756Z,99371.28
2022-11-07T17:36:23.558Z,99369.66
2022-11-07T17:38:54.457Z,99371.78
2022-11-07T17:41:21.108Z,99380.03
2022-11-07T17:43:49.127Z,99379.47
2022-11-07T17:46:16.815Z,99376.19
2022-11-07T17:48:47.412Z,99386.81
2022-11-07T17:51:15.494Z,99388.72
2022-11-07T17:53:43.719Z,99381.38
2022-11-07T17:56:16.434Z,99390.13
2022-11-07T17:58:43.597Z,99389.91
2022-11-07T18:01:15.327Z,99391.03
2022-11-07T18:03:42.386Z,99388.91
2022-11-07T18:06:11.297Z,99392.06
2022-11-07T18:08:51.673Z,99387.56
2022-11-07T18:11:20.642Z,99395.91
2022-11-07T18:13:50.107Z,99392.78
2022-11-07T18:16:20.564Z,99379.06
2022-11-07T18:18:48.305Z,99379.44
2022-11-07T18:21:15.581Z,99387.00
2022-11-07T18:23:43.972Z,99373.59
2022-11-07T18:26:13.008Z,99379.78
2022-11-07T18:28:41.804Z,99382.53
2022-11-07T18:31:11.079Z,99376.88
2022-11-07T18:33:47.188Z,99380.06
2022-11-07T18:36:16.640Z,99378.91
2022-11-07T18:38:47.419Z,99380.19
2022-11-07T18:41:19.524Z,99383.38
2022-11-07T18:43:46.471Z,99385.09
2022-11-07T18:46:15.676Z,99380.16
2022-11-07T18:48:42.886Z,99377.41
2022-11-07T18:51:17.256Z,99373.22
2022-11-07T18:53:46.372Z,99365.41
2022-11-07T18:56:14.480Z,99372.66
2022-11-07T18:58:41.614Z,99372.41
2022-11-07T19:01:12.838Z,99374.13
2022-11-07T19:03:40.898Z,99384.13
2022-11-07T19:06:09.558Z,99384.47
2022-11-07T19:08:41.861Z,99390.09
2022-11-07T19:11:12.761Z,99377.09
2022-11-07T19:13:41.050Z,99365.53
2022-11-07T19:16:11.400Z,99387.75
2022-11-07T19:18:38.572Z,99384.41
2022-11-07T19:21:05.617Z,99395.16
2022-11-07T19:23:35.575Z,99399.19
2022-11-07T19:26:02.503Z,99388.06
2022-11-07T19:28:31.283Z,99400.00
2022-11-07T19:30:58.004Z,99400.72
2022-11-07T19:33:24.566Z,99399.00
2022-11-07T19:35:58.376Z,99395.31
2022-11-07T19:38:25.539Z,99389.56
2022-11-07T19:40:53.161Z,99393.72
2022-11-07T19:43:33.882Z,99402.81
2022-11-07T19:46:06.624Z,99406.97
2022-11-07T19:48:44.792Z,99394.13
2022-11-07T19:51:21.594Z,99385.13
2022-11-07T19:53:53.473Z,99391.63
2022-11-07T19:56:22.969Z,99392.94
2022-11-07T19:58:51.425Z,99388.31
2022-11-07T20:01:20.281Z,99393.56
2022-11-07T20:04:08.738Z,99387.75
2022-11-07T20:06:37.408Z,99385.63
2022-11-07T20:09:11.683Z,99399.50
2022-11-07T20:11:41.961Z,99385.28
2022-11-07T20:14:13.542Z,99383.56
2022-11-07T20:16:44.797Z,99386.94
2022-11-07T20:19:11.487Z,99398.31
2022-11-07T20:21:38.183Z,99384.09
2022-11-07T20:24:05.449Z,99384.31
2022-11-07T20:26:32.931Z,99394.34
2022-11-07T20:28:59.777Z,99371.22
2022-11-07T20:31:30.935Z,99406.94
2022-11-07T20:33:58.680Z,99405.88
2022-11-07T20:36:27.747Z,99405.72
2022-11-07T20:38:55.387Z,99395.50
2022-11-07T20:41:22.367Z,99407.44
2022-11-07T20:43:53.170Z,99389.09
2022-11-07T20:46:20.124Z,99407.00
2022-11-07T20:48:53.840Z,99404.06
2022-11-07T20:51:22.830Z,99408.13
2022-11-07T20:53:50.593Z,99406.75
2022-11-07T20:56:19.002Z,99406.81
2022-11-07T20:58:46.840Z,99403.66
2022-11-07T21:01:16.596Z,99409.22
2022-11-07T21:03:44.437Z,99415.41
2022-11-07T21:06:12.814Z,99416.84
2022-11-07T21:08:40.725Z,99413.94
2022-11-07T21:11:08.605Z,99401.41
2022-11-07T21:13:35.871Z,99417.53
2022-11-07T21:16:03.218Z,99421.38
2022-11-07T21:18:30.224Z,99412.41
2022-11-07T21:21:06.523Z,99414.97
2022-11-07T21:23:34.799Z,99415.00
2022-11-07T21:26:07.102Z,99416.50
2022-11-07T21:28:34.194Z,99420.63
2022-11-07T21:31:02.931Z,99423.50
2022-11-07T21:33:30.369Z,99422.91
2022-11-07T21:35:57.356Z,99410.13
2022-11-07T21:38:24.814Z,99422.78
2022-11-07T21:40:57.013Z,99414.97
2022-11-07T21:43:23.550Z,99408.25
2022-11-07T21:45:50.582Z,99395.59
2022-11-07T21:48:17.276Z,99400.03
2022-11-07T21:50:45.324Z,99398.63
2022-11-07T21:53:12.525Z,99393.34
2022-11-07T21:55:39.413Z,99400.44
2022-11-07T21:58:07.992Z,99399.94
2022-11-07T22:00:36.758Z,99394.59
2022-11-07T22:03:06.738Z,99398.81
2022-11-07T22:05:33.252Z,99395.31
2022-11-07T22:07:59.851Z,99379.97
2022-11-07T22:10:26.410Z,99390.34
2022-11-07T22:12:52.961Z,99376.69
2022-11-07T22:15:21.099Z,99382.75
2022-11-07T22:17:47.826Z,99365.06
2022-11-07T22:20:14.588Z,99379.53
2022-11-07T22:22:43.642Z,99365.63
2022-11-07T22:25:10.375Z,99371.56
2022-11-07T22:27:37.197Z,99379.28
2022-11-07T22:30:05.120Z,99376.81
2022-11-07T22:32:33.441Z,99359.00
2022-11-07T22:35:04.990Z,99373.00
2022-11-07T22:37:35.967Z,99366.19
2022-11-07T22:40:03.078Z,99359.09
2022-11-07T22:42:31.028Z,99354.78
2022-11-07T22:44:58.030Z,99358.41
2022-11-07T22:47:25.613Z,99357.16
2022-11-07T22:49:53.642Z,99347.34
2022-11-07T22:52:20.466Z,99357.81
2022-11-07T22:54:47.013Z,99355.06
2022-11-07T22:57:17.686Z,99346.38
2022-11-07T22:59:45.078Z,99346.72
2022-11-07T23:02:11.846Z,99341.53
2022-11-07T23:04:39.857Z,99345.28
2022-11-07T23:07:07.825Z,99344.00
2022-11-07T23:09:34.569Z,99345.78
2022-11-07T23:12:01.108Z,99343.56
2022-11-07T23:14:27.654Z,99347.25
2022-11-07T23:16:55.042Z,99349.63
2022-11-07T23:19:24.093Z,99346.56
2022-11-07T23:21:51.351Z,99344.53
2022-11-07T23:24:20.010Z,99347.91
2022-11-07T23:26:47.235Z,99334.00
2022-11-07T23:29:15.933Z,99336.50
2022-11-07T23:31:44.832Z,99329.50
2022-11-07T23:34:11.686Z,99333.22
2022-11-07T23:36:39.393Z,99334.47
2022-11-07T23:39:07.777Z,99343.94
2022-11-07T23:41:36.006Z,99333.22
2022-11-07T23:44:02.782Z,99314.47
2022-11-07T23:46:29.649Z,99336.56
2022-11-07T23:48:56.654Z,99330.84
2022-11-07T23:51:23.571Z,99322.06
2022-11-07T23:53:50.708Z,99326.66
2022-11-07T23:56:18.568Z,99323.69
2022-11-07T23:58:48.480Z,99330.41
